Data for 04/14/2017

Time Sea-Level Adjusted Pressure Absolute Pressure Temperature Relative Humidity Dew Point   
(mb) (inHg) (mb) (inHg) (C) (F) (%) (C) (F)
00:05 1010 29.83 839 24.78 1.3 34.3 91 -0.1 31.8
00:10 1010 29.83 839 24.78 1.3 34.4 90 -0.1 31.8
00:15 1010 29.83 839 24.78 1.4 34.5 90 -0.1 31.8
00:20 1010 29.83 839 24.78 1.5 34.7 90 0 32
00:25 1010 29.83 839 24.78 1.6 34.9 90 0.1 32.1
00:30 1010 29.83 839 24.78 1.7 35 89 0.1 32.2
00:35 1010 29.83 839 24.78 1.8 35.2 89 0.2 32.3
00:40 1010 29.83 839 24.78 1.8 35.3 89 0.2 32.4
00:45 1010 29.83 839 24.78 1.9 35.3 88 0.1 32.3
00:50 1010 29.83 839 24.78 1.8 35.3 89 0.2 32.3
00:55 1010 29.83 840 24.81 1.8 35.2 89 0.1 32.2
01:00 1010 29.83 840 24.81 1.8 35.2 89 0.1 32.2
01:05 1010 29.83 840 24.81 1.7 35.1 89 0.1 32.3
01:10 1010 29.83 840 24.81 1.7 35.1 89 0.2 32.3
01:15 1010 29.83 840 24.81 1.7 35.1 90 0.2 32.4
01:20 1011 29.85 840 24.81 1.7 35 90 0.2 32.3
01:25 1011 29.85 840 24.81 1.6 34.8 90 0 32
01:30 1011 29.85 840 24.81 1.4 34.5 90 -0 31.9
01:35 1011 29.85 840 24.81 1.3 34.3 90 -0.1 31.8
01:40 1011 29.85 840 24.81 1.1 34 91 -0.2 31.6
01:45 1011 29.85 840 24.81 1 33.9 91 -0.3 31.5
01:50 1011 29.85 840 24.81 0.9 33.6 91 -0.4 31.3
01:55 1011 29.85 840 24.81 0.8 33.4 92 -0.4 31.2
02:00 1011 29.85 840 24.81 0.6 33.2 92 -0.5 31
02:05 1011 29.85 840 24.81 0.6 33 92 -0.6 31
02:10 1011 29.85 840 24.81 0.6 33 92 -0.6 31
02:15 1011 29.85 840 24.81 0.5 33 93 -0.5 31
02:20 1011 29.85 840 24.81 0.5 33 92 -0.6 31
02:25 1011 29.85 840 24.81 0.5 32.9 93 -0.6 31
02:30 1011 29.85 840 24.81 0.5 32.9 93 -0.6 31
02:35 1011 29.85 840 24.81 0.5 32.9 93 -0.5 31
02:40 1010 29.83 840 24.81 0.5 32.9 93 -0.5 31.1
02:45 1010 29.83 840 24.81 0.6 33.1 93 -0.4 31.2
02:50 1011 29.85 840 24.81 0.7 33.3 93 -0.4 31.4
02:55 1011 29.85 840 24.81 0.8 33.4 92 -0.3 31.4
03:00 1011 29.85 840 24.81 0.8 33.5 93 -0.2 31.6
03:05 1011 29.85 840 24.81 0.9 33.6 92 -0.2 31.6
03:10 1011 29.85 840 24.81 0.8 33.5 92 -0.3 31.5
03:15 1011 29.85 840 24.81 0.8 33.4 92 -0.3 31.4
03:20 1011 29.85 840 24.81 0.7 33.3 92 -0.4 31.2
03:25 1011 29.85 840 24.81 0.6 33.1 92 -0.5 31.1
03:30 1011 29.85 840 24.81 0.6 33 92 -0.5 31
03:35 1011 29.85 840 24.81 0.5 32.9 93 -0.6 31
03:40 1011 29.85 841 24.83 0.6 33 93 -0.5 31.1
03:45 1011 29.85 841 24.83 0.6 33.1 93 -0.5 31.2
03:50 1011 29.85 841 24.83 0.6 33.1 93 -0.5 31.2
03:55 1012 29.88 841 24.83 0.5 33 92 -0.6 31
04:00 1012 29.88 841 24.83 0.3 32.5 92 -0.8 30.6
04:05 1012 29.88 841 24.83 -0.1 31.8 93 -1.2 29.9
04:10 1012 29.88 842 24.86 -0.3 31.5 93 -1.3 29.7
04:15 1012 29.88 842 24.86 -0.4 31.3 94 -1.3 29.7
04:20 1013 29.91 842 24.86 -0.4 31.3 94 -1.3 29.7
04:25 1013 29.91 842 24.86 -0.4 31.3 94 -1.3 29.7
04:30 1013 29.91 842 24.86 -0.4 31.4 94 -1.2 29.9
04:35 1013 29.91 842 24.86 -0.4 31.4 94 -1.2 29.9
04:40 1013 29.91 842 24.86 -0.3 31.4 94 -1.1 29.9
04:45 1013 29.91 842 24.86 -0.3 31.5 94 -1.1 30
04:50 1013 29.91 842 24.86 -0.3 31.5 94 -1.1 30
04:55 1013 29.91 842 24.86 -0.4 31.3 94 -1.2 29.9
05:00 1013 29.91 842 24.86 -0.4 31.3 94 -1.2 29.8
05:05 1013 29.91 842 24.86 -0.4 31.4 94 -1.1 29.9
05:10 1013 29.91 842 24.86 -0.3 31.4 95 -1.1 30
05:15 1013 29.91 842 24.86 -0.3 31.4 95 -1.1 30
05:20 1013 29.91 842 24.86 -0.3 31.4 95 -1.1 30
05:25 1013 29.91 842 24.86 -0.3 31.4 95 -1.1 30
05:30 1013 29.91 843 24.89 -0.4 31.3 95 -1.1 30
05:35 1013 29.91 843 24.89 -0.4 31.3 95 -1.1 30
05:40 1013 29.91 843 24.89 -0.4 31.3 95 -1.1 30
05:45 1014 29.94 843 24.89 -0.4 31.3 95 -1.1 30
05:50 1014 29.94 843 24.89 -0.4 31.2 95 -1.2 29.9
05:55 1014 29.94 843 24.89 -0.4 31.2 95 -1.2 29.9
06:00 1014 29.94 843 24.89 -0.4 31.2 95 -1.2 29.9
06:05 1014 29.94 843 24.89 -0.5 31.2 95 -1.2 29.8
06:10 1014 29.94 843 24.89 -0.5 31 95 -1.3 29.7
06:15 1014 29.94 843 24.89 -0.6 31 95 -1.3 29.7
06:20 1014 29.94 843 24.89 -0.6 31 95 -1.3 29.7
06:25 1014 29.94 843 24.89 -0.5 31 95 -1.3 29.7
06:30 1014 29.94 843 24.89 -0.5 31.1 95 -1.3 29.7
06:35 1014 29.94 843 24.89 -0.4 31.3 95 -1.1 29.9
06:40 1014 29.94 843 24.89 -0.2 31.7 95 -0.9 30.3
06:45 1014 29.94 843 24.89 0.1 32.1 95 -0.7 30.8
06:50 1014 29.94 843 24.89 0.2 32.4 95 -0.5 31.1
06:55 1014 29.94 843 24.89 0.2 32.4 95 -0.5 31
07:00 1014 29.94 843 24.89 0.2 32.3 95 -0.6 31
07:05 1014 29.94 843 24.89 0.2 32.3 94 -0.7 30.8
07:10 1014 29.94 843 24.89 0.2 32.4 94 -0.6 30.8
07:15 1014 29.94 843 24.89 0.4 32.7 94 -0.6 31
07:20 1014 29.94 843 24.89 0.5 32.8 92 -0.7 30.8
07:25 1014 29.94 843 24.89 0.6 33 92 -0.7 30.8
07:30 1014 29.94 843 24.89 0.9 33.6 90 -0.5 31
07:35 1014 29.94 843 24.89 1.1 34 89 -0.5 31.1
07:40 1014 29.94 843 24.89 1.3 34.3 88 -0.5 31.1
07:45 1014 29.94 843 24.89 0.9 33.6 88 -0.9 30.5
07:50 1014 29.94 843 24.89 0.7 33.2 88 -1.1 30
07:55 1014 29.94 843 24.89 0.7 33.2 88 -1.1 30
08:00 1014 29.94 843 24.89 0.7 33.2 87 -1.2 29.9
08:05 1014 29.94 843 24.89 0.8 33.4 86 -1.3 29.7
08:10 1014 29.94 843 24.89 0.9 33.7 85 -1.3 29.7
08:15 1014 29.94 843 24.89 0.8 33.5 86 -1.3 29.7
08:20 1014 29.94 843 24.89 0.9 33.6 85 -1.4 29.5
08:25 1014 29.94 843 24.89 1 33.9 84 -1.4 29.5
08:30 1014 29.94 843 24.89 1 33.9 83 -1.5 29.4
08:35 1014 29.94 843 24.89 1.2 34.2 81 -1.6 29.1
08:40 1014 29.94 843 24.89 1.2 34.2 79 -2 28.4
08:45 1014 29.94 843 24.89 1.5 34.6 75 -2.4 27.6
08:50 1014 29.94 843 24.89 2.7 36.8 71 -2.1 28.2
08:55 1014 29.94 843 24.89 3.6 38.5 67 -1.9 28.5
09:00 1014 29.94 843 24.89 3.4 38.1 64 -2.7 27.1
09:05 1014 29.94 843 24.89 3.6 38.5 64 -2.5 27.4
09:10 1014 29.94 844 24.92 3.7 38.6 64 -2.6 27.3
09:15 1014 29.94 844 24.92 3.9 39 63 -2.5 27.5
09:20 1014 29.94 844 24.92 4.1 39.4 61 -2.7 27.1
09:25 1014 29.94 844 24.92 4.1 39.4 58 -3.4 25.9
09:30 1014 29.94 844 24.92 4.4 40 56 -3.7 25.4
09:35 1014 29.94 844 24.92 5 41 56 -3 26.6
09:40 1014 29.94 844 24.92 5.2 41.4 54 -3.4 25.9
09:45 1014 29.94 844 24.92 5.5 41.9 51 -4 24.9
09:50 1014 29.94 844 24.92 5.4 41.7 50 -4.1 24.6
09:55 1014 29.94 844 24.92 5.6 42.2 48 -4.5 24
10:00 1014 29.94 844 24.92 5.9 42.5 51 -3.5 25.7
10:05 1014 29.94 844 24.92 6 42.8 51 -3.2 26.2
10:10 1014 29.94 844 24.92 6.3 43.4 50 -3.2 26.2
10:15 1014 29.94 844 24.92 6.5 43.7 47 -4 24.8
10:20 1014 29.94 844 24.92 6.2 43.2 49 -3.6 25.6
10:25 1014 29.94 844 24.92 5.6 42.2 55 -2.7 27.1
10:30 1015 29.97 844 24.92 5.5 41.8 50 -4.1 24.6
10:35 1015 29.97 844 24.92 5.7 42.2 50 -3.9 25
10:40 1015 29.97 844 24.92 6.5 43.7 49 -3.4 25.8
10:45 1015 29.97 844 24.92 5.8 42.5 52 -3.2 26.2
10:50 1015 29.97 844 24.92 6.4 43.6 47 -3.9 25
10:55 1014 29.94 844 24.92 6.7 44 51 -2.7 27.2
11:00 1014 29.94 844 24.92 6.7 44 49 -3.3 26
11:05 1014 29.94 844 24.92 6.9 44.4 48 -3.4 25.9
11:10 1014 29.94 844 24.92 7.4 45.3 48 -2.7 27.1
11:15 1014 29.94 843 24.89 7 44.6 49 -2.9 26.9
11:20 1014 29.94 843 24.89 6.8 44.2 49 -3.1 26.4
11:25 1014 29.94 843 24.89 6.4 43.6 50 -3.2 26.2
11:30 1014 29.94 843 24.89 6.9 44.4 48 -3.2 26.2
11:35 1014 29.94 843 24.89 6.8 44.3 49 -3.1 26.4
11:40 1014 29.94 843 24.89 6.9 44.4 48 -3.2 26.2
11:45 1014 29.94 843 24.89 7.2 44.9 48 -3 26.6
11:50 1014 29.94 843 24.89 7.5 45.5 47 -3.1 26.5
11:55 1014 29.94 843 24.89 7.4 45.3 56 -0.9 30.4
12:00 1014 29.94 843 24.89 6.3 43.3 55 -2.1 28.3
12:05 1014 29.94 843 24.89 5.6 42.1 54 -2.9 26.8
12:10 1014 29.94 843 24.89 6.8 44.2 54 -1.8 28.8
12:15 1014 29.94 843 24.89 6.1 43 56 -1.9 28.5
12:20 1014 29.94 843 24.89 6.1 43 55 -2.1 28.2
12:25 1014 29.94 843 24.89 6.8 44.2 49 -3.1 26.4
12:30 1014 29.94 843 24.89 7.2 44.9 52 -1.9 28.6
12:35 1014 29.94 843 24.89 6.6 43.9 50 -3 26.7
12:40 1014 29.94 843 24.89 7 44.7 49 -3 26.6
12:45 1014 29.94 843 24.89 6.7 44 51 -2.6 27.3
12:50 1014 29.94 843 24.89 5.7 42.2 55 -2.6 27.3
12:55 1014 29.94 843 24.89 6 42.8 57 -1.8 28.7
13:00 1014 29.94 843 24.89 6.1 43 53 -2.6 27.2
13:05 1014 29.94 843 24.89 5.6 42.1 54 -2.9 26.8
13:10 1014 29.94 843 24.89 6.2 43.1 53 -2.7 27.2
13:15 1013 29.91 843 24.89 6.8 44.3 50 -2.9 26.8
13:20 1013 29.91 843 24.89 6.9 44.4 52 -2.4 27.8
13:25 1013 29.91 843 24.89 7.1 44.7 48 -3.2 26.2
13:30 1013 29.91 843 24.89 7.1 44.9 50 -2.7 27.2
13:35 1013 29.91 843 24.89 7.2 44.9 49 -2.8 26.9
13:40 1013 29.91 843 24.89 7.2 44.9 48 -2.9 26.7
13:45 1013 29.91 842 24.86 7.8 46 44 -3.6 25.5
13:50 1013 29.91 842 24.86 8.7 47.6 41 -3.9 25
13:55 1013 29.91 842 24.86 9.1 48.3 45 -2.2 28
14:00 1013 29.91 842 24.86 8.6 47.4 44 -2.9 26.7
14:05 1013 29.91 842 24.86 7.5 45.4 48 -2.7 27.1
14:10 1013 29.91 842 24.86 8.3 47 42 -3.9 25
14:15 1013 29.91 842 24.86 8.6 47.4 43 -3.4 25.9
14:20 1013 29.91 842 24.86 8 46.4 42 -4 24.7
14:25 1013 29.91 843 24.89 8 46.4 42 -4.1 24.6
14:30 1013 29.91 843 24.89 8.1 46.5 43 -3.8 25.2
14:35 1013 29.91 843 24.89 8 46.4 44 -3.6 25.5
14:40 1013 29.91 843 24.89 7.9 46.3 43 -3.9 25
14:45 1013 29.91 843 24.89 7.3 45.2 47 -3.1 26.4
14:50 1013 29.91 843 24.89 7.3 45.2 45 -3.8 25.2
14:55 1013 29.91 843 24.89 7.3 45.2 46 -3.6 25.6
15:00 1013 29.91 842 24.86 7.2 44.9 46 -3.6 25.5
15:05 1013 29.91 842 24.86 7.1 44.7 47 -3.5 25.7
15:10 1013 29.91 843 24.89 6.9 44.3 46 -4 24.8
15:15 1013 29.91 843 24.89 6.5 43.6 49 -3.5 25.7
15:20 1013 29.91 843 24.89 6 42.8 51 -3.4 25.9
15:25 1013 29.91 843 24.89 5.6 42.1 51 -3.7 25.3
15:30 1013 29.91 843 24.89 5.5 42 48 -4.6 23.7
15:35 1013 29.91 843 24.89 5.5 41.9 50 -4.2 24.5
15:40 1013 29.91 843 24.89 5.7 42.2 50 -4 24.8
15:45 1013 29.91 843 24.89 6 42.9 49 -3.9 25
15:50 1013 29.91 842 24.86 6.5 43.6 48 -3.9 25.1
15:55 1013 29.91 842 24.86 6.4 43.5 48 -3.7 25.3
16:00 1013 29.91 842 24.86 6.2 43.2 45 -5 23
16:05 1013 29.91 843 24.89 6.3 43.3 49 -3.7 25.4
16:10 1013 29.91 843 24.89 6.5 43.6 48 -3.8 25.1
16:15 1013 29.91 843 24.89 6.3 43.4 49 -3.7 25.4
16:20 1014 29.94 843 24.89 6.3 43.4 49 -3.5 25.6
16:25 1014 29.94 843 24.89 6.7 44.1 46 -4.1 24.5
16:30 1014 29.94 843 24.89 6.4 43.5 47 -4.2 24.4
16:35 1014 29.94 843 24.89 6.3 43.3 48 -4 24.8
16:40 1014 29.94 843 24.89 6.6 43.9 47 -3.9 25
16:45 1014 29.94 843 24.89 6.7 44.1 49 -3.2 26.3
16:50 1014 29.94 843 24.89 6.5 43.6 52 -2.8 27
16:55 1014 29.94 843 24.89 5.9 42.5 54 -2.7 27.1
17:00 1014 29.94 843 24.89 5.8 42.5 53 -2.9 26.8
17:05 1014 29.94 843 24.89 5.7 42.2 53 -3.1 26.4
17:10 1014 29.94 843 24.89 5.5 41.8 55 -2.9 26.8
17:15 1014 29.94 843 24.89 5.4 41.8 56 -2.5 27.4
17:20 1014 29.94 844 24.92 5.3 41.5 57 -2.5 27.5
17:25 1014 29.94 844 24.92 5.4 41.6 58 -2.2 28
17:30 1014 29.94 843 24.89 5.4 41.6 60 -1.7 29
17:35 1014 29.94 844 24.92 4.9 40.8 66 -1 30.2
17:40 1014 29.94 844 24.92 4.4 39.9 69 -0.8 30.5
17:45 1014 29.94 843 24.89 3.9 39.1 72 -0.7 30.8
17:50 1014 29.94 843 24.89 3.4 38.1 74 -0.8 30.6
17:55 1014 29.94 843 24.89 2.9 37.1 75 -1.1 30
18:00 1014 29.94 843 24.89 2.5 36.4 78 -1.1 30.1
18:05 1014 29.94 843 24.89 2.2 36 80 -1 30.2
18:10 1014 29.94 843 24.89 2.1 35.8 80 -0.9 30.4
18:15 1014 29.94 843 24.89 2.1 35.9 81 -0.7 30.7
18:20 1014 29.94 843 24.89 2 35.7 84 -0.3 31.4
18:25 1014 29.94 843 24.89 2.3 36.1 80 -0.7 30.7
18:30 1014 29.94 843 24.89 2.5 36.4 81 -0.4 31.2
18:35 1014 29.94 843 24.89 2.7 36.9 79 -0.5 31.1
18:40 1014 29.94 843 24.89 2.5 36.5 81 -0.5 31.1
18:45 1014 29.94 843 24.89 2.4 36.4 81 -0.5 31
18:50 1014 29.94 843 24.89 2.3 36.1 82 -0.5 31.1
18:55 1014 29.94 843 24.89 2.2 36 81 -0.7 30.8
19:00 1014 29.94 843 24.89 2 35.7 82 -0.7 30.7
19:05 1014 29.94 843 24.89 1.9 35.4 83 -0.8 30.6
19:10 1014 29.94 843 24.89 2 35.6 82 -0.9 30.5
19:15 1014 29.94 843 24.89 2.2 35.9 80 -1 30.2
19:20 1014 29.94 843 24.89 2.4 36.3 79 -0.9 30.4
19:25 1014 29.94 844 24.92 2.7 36.8 80 -0.4 31.2
19:30 1015 29.97 844 24.92 2.7 36.9 81 -0.3 31.5
19:35 1015 29.97 844 24.92 2.4 36.3 84 -0 31.9
19:40 1015 29.97 844 24.92 1.1 34 90 -0.4 31.2
19:45 1015 29.97 844 24.92 0.4 32.8 91 -0.8 30.5
19:50 1015 29.97 844 24.92 0.4 32.8 92 -0.7 30.8
19:55 1015 29.97 844 24.92 0.4 32.7 93 -0.7 30.8
20:00 1015 29.97 844 24.92 0.4 32.6 93 -0.7 30.8
20:05 1015 29.97 844 24.92 0.3 32.6 93 -0.7 30.8
20:10 1015 29.97 844 24.92 0.2 32.3 93 -0.8 30.6
20:15 1015 29.97 844 24.92 0.1 32.2 93 -0.8 30.5
20:20 1015 29.97 844 24.92 0.1 32.2 94 -0.8 30.6
20:25 1015 29.97 844 24.92 0.1 32.2 94 -0.8 30.6
20:30 1015 29.97 844 24.92 0.1 32.1 94 -0.8 30.5
20:35 1015 29.97 844 24.92 0.1 32.2 94 -0.8 30.6
20:40 1015 29.97 844 24.92 0 32.1 94 -0.8 30.5
20:45 1015 29.97 844 24.92 -0 32 94 -0.9 30.4
20:50 1015 29.97 844 24.92 0 32 94 -0.8 30.5
20:55 1015 29.97 844 24.92 0.3 32.6 94 -0.5 31.1
21:00 1015 29.97 844 24.92 0.4 32.7 94 -0.5 31.1
21:05 1015 29.97 845 24.95 0.4 32.7 94 -0.5 31.1
21:10 1015 29.97 845 24.95 0.3 32.5 94 -0.7 30.8
21:15 1015 29.97 845 24.95 0.3 32.6 94 -0.6 30.9
21:20 1015 29.97 845 24.95 0.5 33 93 -0.4 31.2
21:25 1015 29.97 845 24.95 0.7 33.3 93 -0.3 31.5
21:30 1016 30 845 24.95 1 33.8 92 -0.1 31.7
21:35 1016 30 845 24.95 1.2 34.1 91 -0.2 31.6
21:40 1016 30 845 24.95 1.2 34.2 91 -0.2 31.7
21:45 1016 30 845 24.95 1.2 34.1 90 -0.3 31.5
21:50 1016 30 845 24.95 1.1 34 91 -0.3 31.5
21:55 1016 30 845 24.95 1.1 34 91 -0.2 31.6
22:00 1016 30 845 24.95 1.2 34.1 90 -0.2 31.6
22:05 1016 30 845 24.95 1.2 34.1 90 -0.3 31.5
22:10 1016 30 845 24.95 1 33.9 90 -0.4 31.3
22:15 1016 30 845 24.95 0.8 33.4 91 -0.5 31
22:20 1016 30 845 24.95 0.5 32.9 91 -0.7 30.7
22:25 1016 30 846 24.98 0.2 32.4 92 -0.9 30.4
22:30 1016 30 846 24.98 0 32.1 93 -1 30.3
22:35 1017 30.03 846 24.98 -0.1 31.9 93 -1 30.1
22:40 1017 30.03 846 24.98 -0.2 31.6 93 -1.2 29.8
22:45 1017 30.03 846 24.98 -0.5 31.1 94 -1.4 29.5
22:50 1017 30.03 846 24.98 -0.6 30.8 94 -1.5 29.3
22:55 1017 30.03 846 24.98 -0.7 30.7 94 -1.5 29.2
23:00 1017 30.03 846 24.98 -0.8 30.6 94 -1.6 29.1
23:05 1017 30.03 846 24.98 -0.8 30.5 94 -1.6 29.1
23:10 1017 30.03 846 24.98 -0.8 30.6 94 -1.6 29.2
23:15 1017 30.03 847 25.01 -0.8 30.6 94 -1.5 29.2
23:20 1018 30.06 847 25.01 -0.8 30.5 94 -1.6 29
23:25 1018 30.06 847 25.01 -1 30.3 95 -1.7 28.9
23:30 1018 30.06 847 25.01 -1 30.1 95 -1.8 28.8
23:35 1018 30.06 847 25.01 -1.1 30 94 -1.9 28.6
23:40 1018 30.06 847 25.01 -1.1 30 95 -1.9 28.6
23:45 1018 30.06 847 25.01 -1.1 29.9 95 -1.9 28.6
23:50 1018 30.06 847 25.01 -1.1 30 95 -1.9 28.7
23:55 1018 30.06 847 25.01 -1.1 30 95 -1.9 28.6
24:00 1018 30.06 847 25.01 -1.2 29.9 95 -1.9 28.5